createdAt,value
2018-12-31T00:01:10.745Z,26.02
2018-12-31T00:04:15.639Z,27.98
2018-12-31T00:05:32.056Z,28.95
2018-12-31T00:06:50.193Z,26.48
2018-12-31T00:08:06.911Z,23.92
2018-12-31T00:09:23.424Z,27.13
2018-12-31T00:10:39.837Z,28.32
2018-12-31T00:11:56.225Z,28.67
2018-12-31T00:13:12.575Z,26.30
2018-12-31T00:14:31.439Z,23.15
2018-12-31T00:15:51.116Z,23.85
2018-12-31T00:18:28.539Z,26.52
2018-12-31T00:19:44.748Z,24.07
2018-12-31T00:21:00.949Z,24.07
2018-12-31T00:22:17.313Z,27.45
2018-12-31T00:23:33.370Z,22.87
2018-12-31T00:24:50.784Z,24.25
2018-12-31T00:26:11.708Z,26.57
2018-12-31T00:27:26.970Z,23.60
2018-12-31T00:30:44.583Z,24.98
2018-12-31T00:32:03.830Z,23.57
2018-12-31T00:33:20.202Z,22.93
2018-12-31T00:34:36.325Z,21.87
2018-12-31T00:35:52.768Z,26.07
2018-12-31T00:37:09.015Z,26.27
2018-12-31T00:38:25.737Z,26.33
2018-12-31T00:39:42.279Z,25.05
2018-12-31T00:40:59.579Z,24.07
2018-12-31T00:42:16.513Z,25.68
2018-12-31T00:43:32.947Z,22.67
2018-12-31T00:44:49.994Z,23.90
2018-12-31T00:46:06.975Z,28.70
2018-12-31T00:47:23.331Z,25.75
2018-12-31T00:48:39.549Z,26.62
2018-12-31T00:49:55.804Z,27.05
2018-12-31T00:51:12.753Z,25.23
2018-12-31T00:52:28.980Z,21.85
2018-12-31T00:53:45.554Z,26.65
2018-12-31T00:55:02.124Z,26.55
2018-12-31T00:56:18.289Z,23.90
2018-12-31T00:57:34.598Z,26.60
2018-12-31T00:58:51.040Z,24.75
2018-12-31T01:00:08.003Z,24.35
2018-12-31T01:01:23.192Z,31.85
2018-12-31T01:03:06.015Z,25.27
2018-12-31T01:04:22.803Z,26.60
2018-12-31T01:05:39.826Z,26.55
2018-12-31T01:06:56.030Z,28.15
2018-12-31T01:08:12.726Z,25.65
2018-12-31T01:09:29.768Z,28.47
2018-12-31T01:10:46.420Z,21.27
2018-12-31T01:12:03.390Z,25.57
2018-12-31T01:13:19.606Z,23.77
2018-12-31T01:14:38.236Z,27.93
2018-12-31T01:15:55.239Z,23.65
2018-12-31T01:17:12.320Z,27.40
2018-12-31T01:18:29.404Z,23.18
2018-12-31T01:19:46.372Z,24.07
2018-12-31T01:21:02.743Z,22.20
2018-12-31T01:22:19.043Z,23.42
2018-12-31T01:23:35.496Z,20.20
2018-12-31T01:24:54.098Z,26.35
2018-12-31T01:26:11.137Z,20.32
2018-12-31T01:28:42.216Z,24.37
2018-12-31T01:29:59.152Z,23.30
2018-12-31T01:32:40.474Z,22.00
2018-12-31T01:33:55.365Z,24.00
2018-12-31T01:35:12.053Z,21.52
2018-12-31T01:36:28.673Z,19.05
2018-12-31T01:37:45.671Z,19.80
2018-12-31T01:39:02.370Z,19.27
2018-12-31T01:40:19.307Z,19.20
2018-12-31T01:41:36.012Z,19.67
2018-12-31T01:42:53.268Z,22.07
2018-12-31T01:44:09.676Z,22.22
2018-12-31T01:45:26.630Z,19.32
2018-12-31T01:46:42.911Z,19.40
2018-12-31T01:47:59.267Z,20.62
2018-12-31T01:49:15.415Z,18.25
2018-12-31T01:50:32.157Z,15.65
2018-12-31T01:51:49.445Z,17.12
2018-12-31T01:53:05.831Z,17.30
2018-12-31T01:54:23.113Z,17.27
2018-12-31T01:55:40.172Z,17.98
2018-12-31T01:56:56.305Z,15.00
2018-12-31T01:58:13.168Z,19.57
2018-12-31T01:59:30.184Z,21.25
2018-12-31T02:00:46.886Z,16.55
2018-12-31T02:02:05.111Z,18.98
2018-12-31T02:03:21.815Z,14.10
2018-12-31T02:04:38.070Z,17.20
2018-12-31T02:05:54.841Z,15.15
2018-12-31T02:07:11.238Z,15.55
2018-12-31T02:08:28.173Z,17.85
2018-12-31T02:09:44.312Z,16.82
2018-12-31T02:11:00.653Z,15.32
2018-12-31T02:12:16.880Z,23.10
2018-12-31T02:13:32.336Z,15.55
2018-12-31T02:16:23.012Z,16.23
2018-12-31T02:17:39.833Z,17.12
2018-12-31T02:18:56.097Z,16.95
2018-12-31T02:20:12.262Z,17.37
2018-12-31T02:21:28.501Z,19.70
2018-12-31T02:22:44.853Z,17.10
2018-12-31T02:24:01.275Z,16.45
2018-12-31T02:25:17.517Z,15.63
2018-12-31T02:26:34.449Z,17.45
2018-12-31T02:27:49.806Z,20.30
2018-12-31T02:30:50.610Z,17.10
2018-12-31T02:32:06.936Z,15.65
2018-12-31T02:33:23.392Z,15.93
2018-12-31T02:34:39.664Z,15.90
2018-12-31T02:35:58.848Z,15.90
2018-12-31T02:37:17.921Z,17.48
2018-12-31T02:38:34.648Z,16.75
2018-12-31T02:39:51.420Z,15.95
2018-12-31T02:41:07.604Z,16.32
2018-12-31T02:42:24.019Z,16.30
2018-12-31T02:43:41.118Z,17.42
2018-12-31T02:44:57.157Z,16.80
2018-12-31T02:46:13.978Z,15.70
2018-12-31T02:47:30.304Z,15.80
2018-12-31T02:48:47.817Z,16.67
2018-12-31T02:51:15.013Z,15.63
2018-12-31T02:55:17.886Z,18.15
2018-12-31T02:56:34.669Z,16.70
2018-12-31T02:57:51.120Z,18.60
2018-12-31T02:59:07.290Z,15.63
2018-12-31T03:00:24.585Z,15.55
2018-12-31T03:01:41.565Z,14.00
2018-12-31T03:02:57.755Z,17.17
2018-12-31T03:04:16.929Z,14.50
2018-12-31T03:05:34.132Z,18.10
2018-12-31T03:06:51.064Z,17.05
2018-12-31T03:08:07.944Z,16.60
2018-12-31T03:09:23.981Z,15.58
2018-12-31T03:10:40.999Z,16.32
2018-12-31T03:11:57.333Z,17.77
2018-12-31T03:13:13.376Z,14.93
2018-12-31T03:14:30.306Z,15.98
2018-12-31T03:15:46.853Z,16.77
2018-12-31T03:17:04.047Z,14.60
2018-12-31T03:18:20.426Z,14.35
2018-12-31T03:19:36.831Z,15.88
2018-12-31T03:20:53.093Z,18.17
2018-12-31T03:22:09.617Z,17.12
2018-12-31T03:23:25.860Z,14.28
2018-12-31T03:24:42.936Z,15.00
2018-12-31T03:25:59.066Z,15.28
2018-12-31T03:27:15.465Z,18.98
2018-12-31T03:28:31.798Z,16.70
2018-12-31T03:29:48.085Z,15.15
2018-12-31T03:31:06.078Z,15.40
2018-12-31T03:32:23.175Z,14.40
2018-12-31T03:33:40.270Z,15.08
2018-12-31T03:34:57.403Z,16.10
2018-12-31T03:36:15.770Z,15.60
2018-12-31T03:37:31.446Z,16.52
2018-12-31T03:40:32.355Z,16.27
2018-12-31T03:41:48.457Z,15.50
2018-12-31T03:43:05.030Z,16.77
2018-12-31T03:44:27.173Z,17.40
2018-12-31T03:45:44.143Z,17.40
2018-12-31T03:47:01.272Z,15.00
2018-12-31T03:48:18.356Z,18.40
2018-12-31T03:49:34.644Z,16.77
2018-12-31T03:50:52.065Z,14.53
2018-12-31T03:52:09.043Z,17.98
2018-12-31T03:53:25.354Z,15.55
2018-12-31T03:54:41.842Z,16.17
2018-12-31T03:55:58.977Z,16.67
2018-12-31T03:57:15.365Z,13.40
2018-12-31T03:58:31.722Z,14.25
2018-12-31T03:59:48.006Z,15.08
2018-12-31T04:01:04.626Z,15.63
2018-12-31T04:02:21.660Z,15.13
2018-12-31T04:03:38.135Z,16.62
2018-12-31T04:04:54.667Z,14.35
2018-12-31T04:06:12.859Z,17.07
2018-12-31T04:07:31.855Z,17.45
2018-12-31T04:08:48.301Z,14.25
2018-12-31T04:10:04.407Z,14.90
2018-12-31T04:11:20.625Z,16.70
2018-12-31T04:12:37.109Z,15.53
2018-12-31T04:13:53.613Z,15.50
2018-12-31T04:15:10.043Z,16.90
2018-12-31T04:16:26.414Z,15.88
2018-12-31T04:17:43.545Z,16.30
2018-12-31T04:19:03.844Z,15.25
2018-12-31T04:20:20.700Z,16.50
2018-12-31T04:21:37.580Z,17.00
2018-12-31T04:22:54.538Z,17.57
2018-12-31T04:24:11.924Z,17.98
2018-12-31T04:25:30.354Z,15.23
2018-12-31T04:26:46.901Z,17.12
2018-12-31T04:28:04.077Z,13.80
2018-12-31T04:29:21.224Z,15.48
2018-12-31T04:30:38.328Z,16.75
2018-12-31T04:31:55.418Z,16.67
2018-12-31T04:33:12.069Z,14.78
2018-12-31T04:34:29.197Z,16.32
2018-12-31T04:35:45.591Z,15.78
2018-12-31T04:37:01.991Z,17.07
2018-12-31T04:38:18.233Z,17.10
2018-12-31T04:39:35.763Z,17.05
2018-12-31T04:40:52.855Z,15.75
2018-12-31T04:42:09.838Z,18.92
2018-12-31T04:43:26.083Z,17.55
2018-12-31T04:44:42.147Z,16.80
2018-12-31T04:45:58.180Z,17.52
2018-12-31T04:47:14.671Z,17.48
2018-12-31T04:48:30.973Z,19.20
2018-12-31T04:49:48.002Z,19.57
2018-12-31T04:51:04.482Z,19.35
2018-12-31T04:53:45.443Z,21.05
2018-12-31T04:55:02.637Z,21.93
2018-12-31T04:56:18.885Z,21.37
2018-12-31T04:57:35.057Z,17.70
2018-12-31T04:58:54.508Z,18.25
2018-12-31T05:00:10.669Z,23.22
2018-12-31T05:01:27.648Z,20.62
2018-12-31T05:02:44.401Z,26.93
2018-12-31T05:04:00.605Z,20.15
2018-12-31T05:05:17.196Z,22.40
2018-12-31T05:06:33.586Z,24.92
2018-12-31T05:07:50.663Z,23.55
2018-12-31T05:10:18.761Z,23.18
2018-12-31T05:11:42.076Z,23.15
2018-12-31T05:14:12.079Z,21.05
2018-12-31T05:15:35.788Z,27.48
2018-12-31T05:18:06.534Z,24.35
2018-12-31T05:20:48.320Z,23.53
2018-12-31T05:23:20.287Z,23.77
2018-12-31T05:26:03.204Z,21.57
2018-12-31T05:27:19.476Z,21.10
2018-12-31T05:29:46.645Z,25.20
2018-12-31T05:31:09.955Z,26.85
2018-12-31T05:32:23.533Z,25.57
2018-12-31T05:33:38.833Z,27.73
2018-12-31T05:34:51.886Z,25.35
2018-12-31T05:36:34.065Z,27.40
2018-12-31T05:39:01.370Z,28.15
2018-12-31T05:40:20.094Z,25.75
2018-12-31T05:42:48.311Z,33.63
2018-12-31T05:44:02.699Z,27.98
2018-12-31T05:46:34.598Z,28.73
2018-12-31T05:49:05.615Z,27.48
2018-12-31T05:50:16.792Z,31.07
2018-12-31T05:51:26.309Z,28.47
2018-12-31T05:52:34.051Z,34.45
2018-12-31T05:55:34.739Z,28.95
2018-12-31T05:56:51.775Z,26.60
2018-12-31T05:58:07.971Z,28.73
2018-12-31T05:59:24.244Z,29.95
2018-12-31T06:00:43.976Z,25.75
2018-12-31T06:02:04.732Z,26.42
2018-12-31T06:03:22.018Z,31.15
2018-12-31T06:04:38.438Z,29.55
2018-12-31T06:05:57.814Z,32.73
2018-12-31T06:07:16.911Z,30.57
2018-12-31T06:08:34.338Z,31.15
2018-12-31T06:09:58.042Z,29.52
2018-12-31T06:11:08.917Z,30.08
2018-12-31T06:12:44.739Z,32.67
2018-12-31T06:14:02.963Z,35.68
2018-12-31T06:15:19.471Z,33.00
2018-12-31T06:16:35.721Z,32.23
2018-12-31T06:17:52.889Z,34.03
2018-12-31T06:19:09.275Z,32.53
2018-12-31T06:20:25.597Z,33.25
2018-12-31T06:21:41.798Z,38.05
2018-12-31T06:22:58.489Z,33.50
2018-12-31T06:24:15.440Z,34.03
2018-12-31T06:25:32.027Z,32.50
2018-12-31T06:26:47.721Z,35.05
2018-12-31T06:28:11.896Z,35.70
2018-12-31T06:29:28.042Z,34.67
2018-12-31T06:30:44.389Z,33.35
2018-12-31T06:32:00.656Z,37.42
2018-12-31T06:33:17.194Z,33.02
2018-12-31T06:34:33.308Z,37.20
2018-12-31T06:35:49.761Z,37.65
2018-12-31T06:37:06.399Z,38.50
2018-12-31T06:38:22.938Z,36.38
2018-12-31T06:39:39.255Z,33.08
2018-12-31T06:40:58.396Z,41.00
2018-12-31T06:42:15.863Z,36.58
2018-12-31T06:43:35.751Z,37.73
2018-12-31T06:44:53.273Z,34.27
2018-12-31T06:46:11.086Z,38.17
2018-12-31T06:47:33.573Z,34.88
2018-12-31T06:48:52.111Z,41.40
2018-12-31T06:50:09.009Z,36.58
2018-12-31T06:51:26.389Z,36.13
2018-12-31T06:52:42.906Z,34.88
2018-12-31T06:54:00.317Z,36.88
2018-12-31T06:55:17.542Z,33.53
2018-12-31T07:00:01.003Z,49.75
2018-12-31T07:01:18.291Z,62.35
2018-12-31T07:02:35.437Z,80.45
2018-12-31T07:03:52.074Z,90.60
2018-12-31T07:05:16.370Z,50.80
2018-12-31T07:06:40.958Z,56.85
2018-12-31T07:07:57.851Z,46.23
2018-12-31T07:10:35.743Z,44.48
2018-12-31T07:11:49.786Z,45.63
2018-12-31T07:13:06.533Z,43.28
2018-12-31T07:14:42.567Z,43.63
2018-12-31T07:16:18.688Z,39.85
2018-12-31T07:17:37.678Z,36.90
2018-12-31T07:18:54.095Z,40.60
2018-12-31T07:20:11.283Z,38.78
2018-12-31T07:21:28.285Z,38.60
2018-12-31T07:22:45.282Z,42.10
2018-12-31T07:24:02.066Z,40.78
2018-12-31T07:25:18.701Z,46.65
2018-12-31T07:26:34.953Z,46.80
2018-12-31T07:27:51.916Z,45.35
2018-12-31T07:29:08.437Z,43.70
2018-12-31T07:30:25.012Z,43.98
2018-12-31T07:31:41.248Z,39.25
2018-12-31T07:33:01.802Z,57.03
2018-12-31T07:34:19.823Z,49.10
2018-12-31T07:35:37.153Z,53.65
2018-12-31T07:36:56.857Z,49.23
2018-12-31T07:38:13.073Z,57.98
2018-12-31T07:39:30.022Z,50.05
2018-12-31T07:40:47.125Z,45.60
2018-12-31T07:42:03.490Z,50.70
2018-12-31T07:43:21.508Z,47.58
2018-12-31T07:44:39.509Z,58.42
2018-12-31T07:45:56.361Z,54.67
2018-12-31T07:47:12.622Z,56.08
2018-12-31T07:48:29.125Z,48.30
2018-12-31T07:49:46.200Z,52.80
2018-12-31T07:51:02.715Z,46.53
2018-12-31T07:52:19.224Z,51.65
2018-12-31T07:53:35.898Z,48.38
2018-12-31T07:54:52.963Z,58.23
2018-12-31T07:56:10.851Z,49.38
2018-12-31T07:57:27.828Z,52.83
2018-12-31T07:58:45.918Z,50.05
2018-12-31T08:00:05.120Z,47.88
2018-12-31T08:01:23.128Z,55.70
2018-12-31T08:02:40.657Z,53.28
2018-12-31T08:03:58.440Z,53.05
2018-12-31T08:05:16.675Z,57.73
2018-12-31T08:06:36.801Z,54.65
2018-12-31T08:07:56.963Z,60.70
2018-12-31T08:09:14.653Z,60.98
2018-12-31T08:10:31.168Z,55.38
2018-12-31T08:11:48.643Z,61.80
2018-12-31T08:13:05.626Z,53.48
2018-12-31T08:14:24.941Z,57.20
2018-12-31T08:15:42.226Z,50.58
2018-12-31T08:17:00.798Z,62.62
2018-12-31T08:18:17.861Z,66.02
2018-12-31T08:19:38.271Z,61.68
2018-12-31T08:20:57.048Z,56.08
2018-12-31T08:22:16.497Z,56.95
2018-12-31T08:23:35.015Z,57.78
2018-12-31T08:24:51.685Z,68.90
2018-12-31T08:26:08.594Z,61.73
2018-12-31T08:27:25.869Z,64.50
2018-12-31T08:28:44.998Z,68.10
2018-12-31T08:30:01.607Z,58.73
2018-12-31T08:31:22.378Z,108.75
2018-12-31T08:32:39.180Z,82.82
2018-12-31T08:33:58.012Z,106.32
2018-12-31T08:35:14.606Z,90.87
2018-12-31T08:38:16.655Z,79.10
2018-12-31T08:41:17.207Z,62.50
2018-12-31T08:43:55.665Z,62.95
2018-12-31T08:45:16.149Z,61.23
2018-12-31T08:46:35.286Z,60.63
2018-12-31T08:47:53.924Z,58.30
2018-12-31T08:49:11.378Z,57.35
2018-12-31T08:50:30.223Z,69.40
2018-12-31T08:51:49.700Z,70.75
2018-12-31T08:54:52.424Z,65.62
2018-12-31T08:56:11.997Z,58.33
2018-12-31T08:58:08.459Z,65.62
2018-12-31T08:59:41.052Z,61.83
2018-12-31T09:00:58.350Z,64.97
2018-12-31T09:02:17.824Z,60.98
2018-12-31T09:03:39.497Z,62.40
2018-12-31T09:04:59.840Z,65.20
2018-12-31T09:06:16.726Z,75.28
2018-12-31T09:07:32.903Z,62.88
2018-12-31T09:08:38.288Z,69.82
2018-12-31T09:09:43.760Z,56.88
2018-12-31T09:10:50.901Z,59.42
2018-12-31T09:12:04.226Z,60.33
2018-12-31T09:13:10.869Z,62.03
2018-12-31T09:14:19.866Z,60.98
2018-12-31T09:15:26.015Z,64.60
2018-12-31T09:16:40.361Z,77.03
2018-12-31T09:18:05.184Z,65.75
2018-12-31T09:20:58.583Z,61.50
2018-12-31T09:22:15.811Z,61.40
2018-12-31T09:23:32.356Z,73.15
2018-12-31T09:24:49.531Z,61.48
2018-12-31T09:26:09.372Z,69.50
2018-12-31T09:27:25.758Z,69.37
2018-12-31T09:29:58.194Z,62.20
2018-12-31T09:31:19.075Z,62.23
2018-12-31T09:34:19.403Z,70.40
2018-12-31T09:35:37.306Z,55.15
2018-12-31T09:36:54.975Z,69.60
2018-12-31T09:38:11.930Z,73.95
2018-12-31T09:39:30.424Z,87.62
2018-12-31T09:40:49.291Z,65.92
2018-12-31T09:43:23.356Z,62.55
2018-12-31T09:44:40.558Z,53.87
2018-12-31T09:45:58.903Z,69.62
2018-12-31T09:47:15.647Z,65.15
2018-12-31T09:48:35.378Z,55.75
2018-12-31T09:49:51.803Z,67.35
2018-12-31T09:51:08.813Z,67.85
2018-12-31T09:52:25.066Z,59.70
2018-12-31T09:53:44.042Z,57.13
2018-12-31T09:55:00.711Z,74.53
2018-12-31T09:58:20.961Z,57.80
2018-12-31T09:59:55.538Z,59.90
2018-12-31T10:01:02.761Z,61.48
2018-12-31T10:02:22.143Z,63.75
2018-12-31T10:05:00.593Z,83.17
2018-12-31T10:06:17.082Z,75.37
2018-12-31T10:07:35.137Z,70.67
2018-12-31T10:09:18.668Z,65.05
2018-12-31T10:10:23.505Z,61.60
2018-12-31T10:11:41.263Z,66.20
2018-12-31T10:12:58.353Z,66.05
2018-12-31T10:14:15.956Z,63.78
2018-12-31T10:15:37.341Z,72.40
2018-12-31T10:16:55.898Z,68.87
2018-12-31T10:18:13.168Z,72.25
2018-12-31T10:19:32.367Z,67.03
2018-12-31T10:20:48.573Z,65.85
2018-12-31T10:22:05.239Z,82.67
2018-12-31T10:23:26.699Z,69.03
2018-12-31T10:24:43.712Z,61.45
2018-12-31T10:26:00.941Z,67.60
2018-12-31T10:30:55.776Z,62.70
2018-12-31T10:32:12.022Z,65.62
2018-12-31T10:33:28.700Z,71.72
2018-12-31T10:34:48.114Z,71.00
2018-12-31T10:36:04.542Z,74.75
2018-12-31T10:37:21.268Z,69.70
2018-12-31T10:38:41.012Z,66.00
2018-12-31T10:39:57.689Z,63.10
2018-12-31T10:41:14.279Z,62.03
2018-12-31T10:42:31.568Z,63.55
2018-12-31T10:43:49.183Z,63.00
2018-12-31T10:45:05.569Z,70.37
2018-12-31T10:46:22.589Z,62.30
2018-12-31T10:47:39.667Z,62.08
2018-12-31T10:48:56.159Z,59.33
2018-12-31T10:50:13.718Z,78.78
2018-12-31T10:51:29.716Z,68.72
2018-12-31T10:52:46.798Z,70.78
2018-12-31T10:54:03.290Z,69.87
2018-12-31T10:55:22.930Z,96.08
2018-12-31T10:56:39.454Z,70.50
2018-12-31T10:57:55.829Z,71.05
2018-12-31T10:59:12.322Z,70.80
2018-12-31T11:00:28.912Z,71.70
2018-12-31T11:01:46.606Z,61.42
2018-12-31T11:03:03.641Z,66.42
2018-12-31T11:04:24.295Z,62.33
2018-12-31T11:05:40.870Z,57.03
2018-12-31T11:06:57.361Z,77.22
2018-12-31T11:08:13.077Z,61.77
2018-12-31T11:09:33.977Z,55.95
2018-12-31T11:10:52.061Z,65.30
2018-12-31T11:12:08.704Z,71.92
2018-12-31T11:13:25.491Z,68.70
2018-12-31T11:15:03.088Z,66.92
2018-12-31T11:16:09.050Z,66.12
2018-12-31T11:17:26.078Z,71.33
2018-12-31T11:18:43.362Z,63.73
2018-12-31T11:19:59.916Z,63.90
2018-12-31T11:21:16.321Z,71.77
2018-12-31T11:22:33.726Z,66.90
2018-12-31T11:23:50.916Z,62.38
2018-12-31T11:25:08.125Z,55.52
2018-12-31T11:28:02.371Z,76.75
2018-12-31T11:29:18.638Z,65.80
2018-12-31T11:30:34.872Z,70.03
2018-12-31T11:31:51.173Z,61.15
2018-12-31T11:33:08.418Z,59.35
2018-12-31T11:34:27.309Z,73.07
2018-12-31T11:35:44.865Z,69.45
2018-12-31T11:37:01.917Z,56.58
2018-12-31T11:38:46.655Z,68.80
2018-12-31T11:41:49.195Z,56.20
2018-12-31T11:43:05.763Z,61.58
2018-12-31T11:44:21.893Z,56.85
2018-12-31T11:45:38.527Z,67.45
2018-12-31T11:46:57.226Z,65.85
2018-12-31T11:48:14.489Z,67.72
2018-12-31T11:49:31.915Z,57.88
2018-12-31T11:50:56.599Z,56.20
2018-12-31T11:52:15.980Z,61.42
2018-12-31T11:53:32.879Z,53.50
2018-12-31T11:54:49.588Z,59.50
2018-12-31T11:56:06.289Z,71.35
2018-12-31T11:57:24.081Z,57.65
2018-12-31T11:58:41.068Z,70.03
2018-12-31T11:59:57.752Z,58.23
2018-12-31T12:01:17.289Z,70.67
2018-12-31T12:02:35.471Z,65.62
2018-12-31T12:03:52.552Z,77.17
2018-12-31T12:05:09.185Z,67.85
2018-12-31T12:06:25.545Z,78.45
2018-12-31T12:07:42.017Z,63.42
2018-12-31T12:08:57.355Z,75.92
2018-12-31T12:10:14.214Z,67.17
2018-12-31T12:11:32.574Z,87.57
2018-12-31T12:12:52.616Z,88.30
2018-12-31T12:14:08.816Z,62.10
2018-12-31T12:17:09.432Z,67.00
2018-12-31T12:18:26.747Z,56.85
2018-12-31T12:20:28.320Z,67.87
2018-12-31T12:21:17.061Z,69.85
2018-12-31T12:22:41.278Z,63.15
2018-12-31T12:27:29.010Z,61.98
2018-12-31T12:29:07.842Z,71.75
2018-12-31T12:30:13.886Z,59.15
2018-12-31T12:31:31.527Z,64.03
2018-12-31T12:33:07.000Z,71.12
2018-12-31T12:34:23.623Z,68.30
2018-12-31T12:35:40.377Z,65.55
2018-12-31T12:39:58.609Z,71.82
2018-12-31T12:41:15.024Z,79.45
2018-12-31T12:42:35.530Z,78.87
2018-12-31T12:43:53.150Z,69.62
2018-12-31T12:46:55.867Z,73.35
2018-12-31T12:48:12.521Z,75.97
2018-12-31T12:49:32.306Z,75.85
2018-12-31T12:50:49.044Z,62.50
2018-12-31T12:52:06.314Z,74.80
2018-12-31T12:53:23.299Z,74.17
2018-12-31T12:54:41.853Z,68.50
2018-12-31T12:55:58.865Z,58.02
2018-12-31T12:57:15.165Z,194.90
2018-12-31T12:58:33.082Z,71.50
2018-12-31T12:59:49.802Z,68.20
2018-12-31T13:01:07.221Z,60.40
2018-12-31T13:02:56.485Z,78.20
2018-12-31T13:03:58.713Z,72.72
2018-12-31T13:05:39.391Z,93.62
2018-12-31T13:06:56.041Z,66.77
2018-12-31T13:08:15.709Z,145.38
2018-12-31T13:09:34.638Z,100.38
2018-12-31T13:12:40.336Z,69.17
2018-12-31T13:16:00.828Z,69.10
2018-12-31T13:17:22.135Z,81.25
2018-12-31T13:18:31.039Z,58.58
2018-12-31T13:19:48.241Z,62.70
2018-12-31T13:21:05.844Z,59.38
2018-12-31T13:22:23.762Z,82.05
2018-12-31T13:23:54.288Z,75.03
2018-12-31T13:25:15.834Z,69.87
2018-12-31T13:28:16.640Z,67.53
2018-12-31T13:29:34.766Z,66.55
2018-12-31T13:30:51.856Z,74.77
2018-12-31T13:32:08.596Z,70.52
2018-12-31T13:33:44.836Z,68.52
2018-12-31T13:35:02.075Z,61.92
2018-12-31T13:36:19.198Z,79.22
2018-12-31T13:37:36.723Z,67.40
2018-12-31T13:38:53.292Z,73.35
2018-12-31T13:40:10.265Z,62.98
2018-12-31T13:41:27.132Z,71.95
2018-12-31T13:42:43.338Z,64.55
2018-12-31T13:44:02.197Z,54.67
2018-12-31T13:45:19.994Z,62.40
2018-12-31T13:46:37.029Z,66.82
2018-12-31T13:47:54.302Z,64.58
2018-12-31T13:49:11.682Z,61.40
2018-12-31T13:50:29.271Z,76.12
2018-12-31T13:51:49.152Z,56.55
2018-12-31T13:53:07.208Z,70.40
2018-12-31T13:54:24.225Z,59.93
2018-12-31T13:55:43.279Z,76.22
2018-12-31T13:57:01.747Z,71.15
2018-12-31T13:58:19.053Z,74.67
2018-12-31T13:59:36.199Z,69.75
2018-12-31T14:00:54.177Z,59.00
2018-12-31T14:02:11.855Z,63.17
2018-12-31T14:03:28.278Z,62.23
2018-12-31T14:04:45.385Z,63.55
2018-12-31T14:06:01.532Z,57.17
2018-12-31T14:09:00.786Z,56.77
2018-12-31T14:10:18.048Z,57.13
2018-12-31T14:13:28.831Z,74.47
2018-12-31T14:14:45.505Z,70.37
2018-12-31T14:16:05.400Z,80.03
2018-12-31T14:17:24.256Z,70.83
2018-12-31T14:18:43.059Z,63.25
2018-12-31T14:20:02.268Z,54.80
2018-12-31T14:21:18.733Z,59.60
2018-12-31T14:24:18.255Z,57.88
2018-12-31T14:25:23.788Z,56.83
2018-12-31T14:26:29.400Z,57.05
2018-12-31T14:27:39.024Z,65.50
2018-12-31T14:28:46.434Z,68.55
2018-12-31T14:29:53.638Z,65.52
2018-12-31T14:31:04.384Z,62.20
2018-12-31T14:32:10.209Z,61.80
2018-12-31T14:33:16.859Z,58.08
2018-12-31T14:34:22.774Z,54.23
2018-12-31T14:39:12.051Z,153.78
2018-12-31T14:40:28.341Z,126.78
2018-12-31T14:41:44.745Z,98.92
2018-12-31T14:43:01.264Z,63.78
2018-12-31T14:44:20.056Z,70.95
2018-12-31T14:45:37.384Z,62.30
2018-12-31T14:46:55.039Z,62.85
2018-12-31T14:48:12.414Z,67.10
2018-12-31T14:49:31.709Z,91.15
2018-12-31T14:50:48.938Z,73.83
2018-12-31T14:52:06.152Z,67.35
2018-12-31T14:53:25.550Z,72.82
2018-12-31T14:54:45.513Z,90.22
2018-12-31T14:56:02.884Z,74.30
2018-12-31T14:57:19.605Z,65.28
2018-12-31T14:58:36.898Z,89.40
2018-12-31T14:59:54.812Z,76.42
2018-12-31T15:02:45.532Z,63.52
2018-12-31T15:04:02.825Z,106.95
2018-12-31T15:05:20.336Z,132.82
2018-12-31T15:06:37.047Z,104.00
2018-12-31T15:07:54.072Z,143.90
2018-12-31T15:11:16.103Z,74.53
2018-12-31T15:12:58.292Z,66.80
2018-12-31T15:14:15.600Z,168.32
2018-12-31T15:15:32.728Z,88.05
2018-12-31T15:16:49.083Z,79.45
2018-12-31T15:18:06.196Z,68.02
2018-12-31T15:19:22.482Z,80.70
2018-12-31T15:20:39.868Z,75.47
2018-12-31T15:21:56.841Z,67.03
2018-12-31T15:23:15.084Z,66.92
2018-12-31T15:24:32.638Z,58.55
2018-12-31T15:25:50.870Z,59.90
2018-12-31T15:27:08.314Z,75.05
2018-12-31T15:28:28.833Z,68.50
2018-12-31T15:29:47.984Z,74.92
2018-12-31T15:31:04.654Z,58.45
2018-12-31T15:32:21.201Z,69.62
2018-12-31T15:33:40.402Z,65.15
2018-12-31T15:35:01.050Z,68.45
2018-12-31T15:36:18.032Z,104.20
2018-12-31T15:37:35.496Z,72.85
2018-12-31T15:38:52.716Z,82.65
2018-12-31T15:40:10.793Z,127.40
2018-12-31T15:41:50.434Z,91.67
2018-12-31T15:42:51.543Z,86.67
2018-12-31T15:44:09.541Z,67.30
2018-12-31T15:45:27.064Z,71.62
2018-12-31T15:46:48.503Z,68.25
2018-12-31T15:48:06.409Z,79.40
2018-12-31T15:49:23.724Z,72.15
2018-12-31T15:50:44.857Z,79.47
2018-12-31T15:52:03.690Z,68.55
2018-12-31T15:53:21.289Z,54.53
2018-12-31T15:54:38.868Z,61.37
2018-12-31T15:55:58.666Z,56.75
2018-12-31T15:57:18.355Z,67.67
2018-12-31T15:58:34.565Z,62.33
2018-12-31T15:59:54.140Z,67.15
2018-12-31T16:01:32.006Z,53.05
2018-12-31T16:02:50.944Z,69.00
2018-12-31T16:05:31.208Z,61.77
2018-12-31T16:06:49.925Z,65.75
2018-12-31T16:08:10.652Z,61.33
2018-12-31T16:09:27.656Z,56.25
2018-12-31T16:11:04.567Z,85.80
2018-12-31T16:12:13.615Z,71.40
2018-12-31T16:13:28.309Z,62.40
2018-12-31T16:14:44.723Z,64.07
2018-12-31T16:16:04.399Z,82.05
2018-12-31T16:17:21.282Z,61.13
2018-12-31T16:18:38.471Z,60.10
2018-12-31T16:19:56.500Z,55.17
2018-12-31T16:21:13.290Z,62.88
2018-12-31T16:22:30.103Z,58.40
2018-12-31T16:23:48.934Z,59.55
2018-12-31T16:25:05.732Z,55.30
2018-12-31T16:27:48.604Z,58.08
2018-12-31T16:29:07.138Z,73.52
2018-12-31T16:30:28.236Z,57.58
2018-12-31T16:31:45.213Z,67.70
2018-12-31T16:33:01.610Z,64.60
2018-12-31T16:34:19.893Z,71.87
2018-12-31T16:35:36.855Z,67.03
2018-12-31T16:36:54.579Z,57.88
2018-12-31T16:38:25.678Z,50.55
2018-12-31T16:39:48.882Z,59.48
2018-12-31T16:42:27.684Z,58.83
2018-12-31T16:43:45.128Z,62.08
2018-12-31T16:45:02.614Z,62.55
2018-12-31T16:46:20.696Z,63.65
2018-12-31T16:47:40.052Z,60.20
2018-12-31T16:48:57.982Z,61.42
2018-12-31T16:50:40.786Z,56.65
2018-12-31T16:51:44.836Z,63.68
2018-12-31T16:53:01.435Z,68.83
2018-12-31T16:54:18.585Z,57.25
2018-12-31T16:55:38.906Z,63.60
2018-12-31T16:58:26.712Z,76.92
2018-12-31T16:59:45.713Z,53.40
2018-12-31T17:01:04.453Z,70.37
2018-12-31T17:02:25.014Z,65.92
2018-12-31T17:03:43.189Z,63.75
2018-12-31T17:05:00.291Z,61.42
2018-12-31T17:06:17.205Z,72.58
2018-12-31T17:07:33.745Z,86.42
2018-12-31T17:08:52.888Z,67.87
2018-12-31T17:10:09.388Z,65.78
2018-12-31T17:11:26.557Z,75.78
2018-12-31T17:12:43.713Z,57.17
2018-12-31T17:14:00.244Z,79.82
2018-12-31T17:15:17.439Z,70.95
2018-12-31T17:16:33.723Z,62.95
2018-12-31T17:17:51.209Z,75.52
2018-12-31T17:19:31.689Z,75.60
2018-12-31T17:20:27.883Z,78.28
2018-12-31T17:21:34.632Z,56.53
2018-12-31T17:22:41.938Z,76.30
2018-12-31T17:23:49.194Z,61.65
2018-12-31T17:24:57.908Z,97.97
2018-12-31T17:26:15.381Z,115.95
2018-12-31T17:27:20.657Z,126.78
2018-12-31T17:29:03.820Z,91.32
2018-12-31T17:30:23.773Z,115.20
2018-12-31T17:32:54.186Z,80.07
2018-12-31T17:34:11.757Z,108.15
2018-12-31T17:35:31.429Z,92.17
2018-12-31T17:36:48.901Z,92.17
2018-12-31T17:38:05.881Z,78.57
2018-12-31T17:39:22.603Z,79.25
2018-12-31T17:40:39.976Z,71.37
2018-12-31T17:41:57.312Z,75.57
2018-12-31T17:43:13.579Z,76.67
2018-12-31T17:44:31.098Z,82.22
2018-12-31T17:45:50.623Z,73.85
2018-12-31T17:47:07.852Z,77.30
2018-12-31T17:48:27.203Z,76.70
2018-12-31T17:49:44.842Z,86.65
2018-12-31T17:51:05.272Z,83.17
2018-12-31T17:54:04.283Z,85.70
2018-12-31T17:57:06.653Z,84.32
2018-12-31T17:58:25.268Z,79.65
2018-12-31T18:00:07.057Z,98.80
2018-12-31T18:01:06.865Z,86.53
2018-12-31T18:02:24.606Z,78.83
2018-12-31T18:03:43.284Z,80.25
2018-12-31T18:06:39.319Z,85.05
2018-12-31T18:08:16.275Z,91.15
2018-12-31T18:09:23.190Z,90.97
2018-12-31T18:10:55.189Z,86.30
2018-12-31T18:12:15.181Z,89.97
2018-12-31T18:13:42.327Z,91.82
2018-12-31T18:15:06.562Z,81.70
2018-12-31T18:16:18.972Z,100.30
2018-12-31T18:19:16.587Z,75.57
2018-12-31T18:20:27.389Z,78.60
2018-12-31T18:21:39.999Z,76.35
2018-12-31T18:23:16.596Z,81.28
2018-12-31T18:24:34.269Z,80.45